createdAt,value
2023-01-07T00:01:39.269Z,9.48
2023-01-07T00:04:08.979Z,9.46
2023-01-07T00:06:39.537Z,9.45
2023-01-07T00:09:08.411Z,9.44
2023-01-07T00:11:37.943Z,9.39
2023-01-07T00:14:07.591Z,9.39
2023-01-07T00:16:36.553Z,9.40
2023-01-07T00:19:05.964Z,9.16
2023-01-07T00:21:33.712Z,9.36
2023-01-07T00:24:04.367Z,9.47
2023-01-07T00:26:34.466Z,9.47
2023-01-07T00:29:02.138Z,9.44
2023-01-07T00:31:31.621Z,9.58
2023-01-07T00:33:59.399Z,9.58
2023-01-07T00:36:32.142Z,9.70
2023-01-07T00:39:02.620Z,9.74
2023-01-07T00:41:30.520Z,9.75
2023-01-07T00:43:57.967Z,9.78
2023-01-07T00:46:25.844Z,9.72
2023-01-07T00:48:53.549Z,9.65
2023-01-07T00:51:21.104Z,9.60
2023-01-07T00:53:48.747Z,9.73
2023-01-07T00:56:18.960Z,9.62
2023-01-07T00:58:46.823Z,9.65
2023-01-07T01:01:14.999Z,9.69
2023-01-07T01:03:42.753Z,9.81
2023-01-07T01:06:14.129Z,9.88
2023-01-07T01:08:46.169Z,9.96
2023-01-07T01:11:14.689Z,9.99
2023-01-07T01:13:42.770Z,10.04
2023-01-07T01:16:12.874Z,10.11
2023-01-07T01:18:40.654Z,9.93
2023-01-07T01:21:10.579Z,9.91
2023-01-07T01:23:38.821Z,9.93
2023-01-07T01:26:08.857Z,9.94
2023-01-07T01:28:36.533Z,9.68
2023-01-07T01:31:05.067Z,9.75
2023-01-07T01:33:34.005Z,9.70
2023-01-07T01:36:06.612Z,9.64
2023-01-07T01:38:34.435Z,9.52
2023-01-07T01:41:02.096Z,9.40
2023-01-07T01:43:38.811Z,9.40
2023-01-07T01:46:30.001Z,9.19
2023-01-07T01:49:01.799Z,9.50
2023-01-07T01:51:34.631Z,9.54
2023-01-07T01:54:09.046Z,9.58
2023-01-07T01:56:40.743Z,9.60
2023-01-07T01:59:12.233Z,9.55
2023-01-07T02:01:40.512Z,9.60
2023-01-07T02:04:14.973Z,9.37
2023-01-07T02:06:50.669Z,9.02
2023-01-07T02:09:18.542Z,9.24
2023-01-07T02:12:14.221Z,9.24
2023-01-07T02:15:08.708Z,9.15
2023-01-07T02:18:21.976Z,9.25
2023-01-07T02:21:08.313Z,9.24
2023-01-07T02:23:41.615Z,9.23
2023-01-07T02:26:34.081Z,9.16
2023-01-07T02:29:20.754Z,9.16
2023-01-07T02:32:10.566Z,9.12
2023-01-07T02:34:50.614Z,9.14
2023-01-07T02:37:30.189Z,9.08
2023-01-07T02:40:06.850Z,9.11
2023-01-07T02:43:06.916Z,9.07
2023-01-07T02:46:00.995Z,8.93
2023-01-07T02:48:28.993Z,8.84
2023-01-07T02:50:56.798Z,8.75
2023-01-07T02:53:24.316Z,8.73
2023-01-07T02:56:25.782Z,8.77
2023-01-07T02:59:07.475Z,8.66
2023-01-07T03:01:56.097Z,8.62
2023-01-07T03:04:40.268Z,8.64
2023-01-07T03:07:07.537Z,8.62
2023-01-07T03:09:52.504Z,8.48
2023-01-07T03:12:26.861Z,8.65
2023-01-07T03:14:59.815Z,8.76
2023-01-07T03:17:32.643Z,8.52
2023-01-07T03:20:01.197Z,8.32
2023-01-07T03:22:30.255Z,8.55
2023-01-07T03:24:58.342Z,8.50
2023-01-07T03:27:27.771Z,8.48
2023-01-07T03:29:56.136Z,8.60
2023-01-07T03:32:30.365Z,8.64
2023-01-07T03:34:58.529Z,8.66
2023-01-07T03:37:28.121Z,8.60
2023-01-07T03:39:57.161Z,8.61
2023-01-07T03:42:40.698Z,8.69
2023-01-07T03:45:19.138Z,8.79
2023-01-07T03:47:50.378Z,8.83
2023-01-07T03:50:18.324Z,8.87
2023-01-07T03:52:48.441Z,8.88
2023-01-07T03:55:16.826Z,8.77
2023-01-07T03:57:44.308Z,8.70
2023-01-07T04:00:13.104Z,8.58
2023-01-07T04:02:42.555Z,8.48
2023-01-07T04:05:12.155Z,8.57
2023-01-07T04:07:39.777Z,8.57
2023-01-07T04:10:08.826Z,8.40
2023-01-07T04:12:36.759Z,8.35
2023-01-07T04:15:05.159Z,8.34
2023-01-07T04:17:33.066Z,8.35
2023-01-07T04:20:00.852Z,8.24
2023-01-07T04:22:28.344Z,8.17
2023-01-07T04:24:55.820Z,8.06
2023-01-07T04:27:24.324Z,8.24
2023-01-07T04:29:52.601Z,7.96
2023-01-07T04:32:21.087Z,8.02
2023-01-07T04:34:49.701Z,7.93
2023-01-07T04:37:17.667Z,7.89
2023-01-07T04:39:45.453Z,8.03
2023-01-07T04:42:13.276Z,7.92
2023-01-07T04:44:40.880Z,7.79
2023-01-07T04:47:08.429Z,7.93
2023-01-07T04:49:36.612Z,7.92
2023-01-07T04:52:04.764Z,7.90
2023-01-07T04:54:32.669Z,7.91
2023-01-07T04:57:00.456Z,7.87
2023-01-07T04:59:28.303Z,7.76
2023-01-07T05:01:56.398Z,7.78
2023-01-07T05:04:24.253Z,7.76
2023-01-07T05:06:52.057Z,7.81
2023-01-07T05:09:19.590Z,7.79
2023-01-07T05:11:47.477Z,7.71
2023-01-07T05:14:14.983Z,7.72
2023-01-07T05:16:43.737Z,7.71
2023-01-07T05:19:11.758Z,7.59
2023-01-07T05:21:39.581Z,7.61
2023-01-07T05:24:07.811Z,7.63
2023-01-07T05:26:35.963Z,7.71
2023-01-07T05:29:03.933Z,7.65
2023-01-07T05:31:31.876Z,7.63
2023-01-07T05:33:59.780Z,7.61
2023-01-07T05:36:28.429Z,7.57
2023-01-07T05:38:56.462Z,7.51
2023-01-07T05:41:24.149Z,7.50
2023-01-07T05:43:51.922Z,7.49
2023-01-07T05:46:19.401Z,7.39
2023-01-07T05:48:47.213Z,7.39
2023-01-07T05:51:14.657Z,7.39
2023-01-07T05:53:41.990Z,7.37
2023-01-07T05:56:09.724Z,7.38
2023-01-07T05:58:37.166Z,7.40
2023-01-07T06:01:04.628Z,7.47
2023-01-07T06:03:32.560Z,7.36
2023-01-07T06:06:06.927Z,7.37
2023-01-07T06:08:38.244Z,7.34
2023-01-07T06:11:07.239Z,7.25
2023-01-07T06:13:35.279Z,7.19
2023-01-07T06:16:07.244Z,7.12
2023-01-07T06:18:35.476Z,7.07
2023-01-07T06:21:03.339Z,7.10
2023-01-07T06:23:31.425Z,7.12
2023-01-07T06:25:59.138Z,7.22
2023-01-07T06:28:26.551Z,7.09
2023-01-07T06:30:54.023Z,7.11
2023-01-07T06:33:21.822Z,7.10
2023-01-07T06:35:49.239Z,7.28
2023-01-07T06:38:16.642Z,7.03
2023-01-07T06:40:44.750Z,6.94
2023-01-07T06:43:12.479Z,7.00
2023-01-07T06:45:41.529Z,7.11
2023-01-07T06:48:09.348Z,7.12
2023-01-07T06:50:37.026Z,7.12
2023-01-07T06:53:04.839Z,7.09
2023-01-07T06:55:32.503Z,7.06
2023-01-07T06:57:59.887Z,7.10
2023-01-07T07:00:27.415Z,7.02
2023-01-07T07:02:55.102Z,7.13
2023-01-07T07:05:22.570Z,7.19
2023-01-07T07:07:49.935Z,7.42
2023-01-07T07:10:17.679Z,7.21
2023-01-07T07:12:45.031Z,7.08
2023-01-07T07:15:12.514Z,7.10
2023-01-07T07:17:40.156Z,7.07
2023-01-07T07:20:08.084Z,7.13
2023-01-07T07:22:35.433Z,7.15
2023-01-07T07:25:03.174Z,7.33
2023-01-07T07:27:30.537Z,7.50
2023-01-07T07:29:57.862Z,7.52
2023-01-07T07:32:28.374Z,7.60
2023-01-07T07:34:56.252Z,7.79
2023-01-07T07:37:23.634Z,7.83
2023-01-07T07:39:51.309Z,7.86
2023-01-07T07:42:18.769Z,7.97
2023-01-07T07:44:46.178Z,8.13
2023-01-07T07:47:13.932Z,8.30
2023-01-07T07:49:41.336Z,8.37
2023-01-07T07:52:08.748Z,8.51
2023-01-07T07:54:36.407Z,8.59
2023-01-07T07:57:03.925Z,8.71
2023-01-07T07:59:31.279Z,8.80
2023-01-07T08:01:58.917Z,8.96
2023-01-07T08:04:28.810Z,8.75
2023-01-07T08:06:56.201Z,8.58
2023-01-07T08:09:23.555Z,8.61
2023-01-07T08:11:51.230Z,8.63
2023-01-07T08:14:18.679Z,8.79
2023-01-07T08:16:46.371Z,9.09
2023-01-07T08:19:14.965Z,9.21
2023-01-07T08:21:42.415Z,9.34
2023-01-07T08:24:09.801Z,9.45
2023-01-07T08:26:37.445Z,9.41
2023-01-07T08:29:04.841Z,9.46
2023-01-07T08:31:32.367Z,9.60
2023-01-07T08:34:00.052Z,9.81
2023-01-07T08:36:27.496Z,9.86
2023-01-07T08:38:55.400Z,9.91
2023-01-07T08:41:24.445Z,10.15
2023-01-07T08:43:53.186Z,10.30
2023-01-07T08:46:20.745Z,10.26
2023-01-07T08:48:48.501Z,10.55
2023-01-07T08:51:15.893Z,10.77
2023-01-07T08:53:43.373Z,10.91
2023-01-07T08:56:10.983Z,10.93
2023-01-07T08:58:39.200Z,11.12
2023-01-07T09:01:07.397Z,11.09
2023-01-07T09:03:35.249Z,11.41
2023-01-07T09:06:02.684Z,11.42
2023-01-07T09:08:30.076Z,11.37
2023-01-07T09:10:57.687Z,11.49
2023-01-07T09:13:25.119Z,11.50
2023-01-07T09:15:53.119Z,11.68
2023-01-07T09:18:21.492Z,11.77
2023-01-07T09:20:49.108Z,11.95
2023-01-07T09:23:16.552Z,11.96
2023-01-07T09:25:44.480Z,11.94
2023-01-07T09:28:11.895Z,12.08
2023-01-07T09:30:39.314Z,12.30
2023-01-07T09:33:07.414Z,12.02
2023-01-07T09:35:35.051Z,12.30
2023-01-07T09:38:02.461Z,12.09
2023-01-07T09:40:35.024Z,12.34
2023-01-07T09:43:25.784Z,12.56
2023-01-07T09:46:14.148Z,12.56
2023-01-07T09:48:58.093Z,12.67
2023-01-07T09:51:33.552Z,12.52
2023-01-07T09:54:03.742Z,12.71
2023-01-07T09:56:34.028Z,12.75
2023-01-07T09:59:02.179Z,13.05
2023-01-07T10:01:37.803Z,13.24
2023-01-07T10:04:34.343Z,13.42
2023-01-07T10:07:20.606Z,13.42
2023-01-07T10:09:54.307Z,13.43
2023-01-07T10:12:36.436Z,13.19
2023-01-07T10:15:22.038Z,13.26
2023-01-07T10:18:10.478Z,13.45
2023-01-07T10:20:58.487Z,13.61
2023-01-07T10:23:30.110Z,13.58
2023-01-07T10:26:00.348Z,13.50
2023-01-07T10:28:33.665Z,13.47
2023-01-07T10:31:01.596Z,13.60
2023-01-07T10:33:32.519Z,13.74
2023-01-07T10:36:08.793Z,13.80
2023-01-07T10:38:42.207Z,13.81
2023-01-07T10:41:36.950Z,13.82
2023-01-07T10:44:19.764Z,13.84
2023-01-07T10:46:47.007Z,13.91
2023-01-07T10:49:53.057Z,14.18
2023-01-07T10:52:29.183Z,13.97
2023-01-07T10:55:10.427Z,14.00
2023-01-07T10:57:38.815Z,13.95
2023-01-07T11:00:11.070Z,14.00
2023-01-07T11:02:38.977Z,14.17
2023-01-07T11:05:06.896Z,14.21
2023-01-07T11:07:43.882Z,14.15
2023-01-07T11:10:21.029Z,14.28
2023-01-07T11:12:51.628Z,14.35
2023-01-07T11:15:31.661Z,14.36
2023-01-07T11:18:02.581Z,14.26
2023-01-07T11:20:55.859Z,14.63
2023-01-07T11:23:42.774Z,14.63
2023-01-07T11:26:16.362Z,14.74
2023-01-07T11:28:47.644Z,14.71
2023-01-07T11:31:15.198Z,14.81
2023-01-07T11:34:01.352Z,14.87
2023-01-07T11:36:42.413Z,14.72
2023-01-07T11:39:12.529Z,14.80
2023-01-07T11:41:53.857Z,14.75
2023-01-07T11:44:21.402Z,14.80
2023-01-07T11:46:49.417Z,14.88
2023-01-07T11:49:22.735Z,14.93
2023-01-07T11:51:50.699Z,14.86
2023-01-07T11:54:26.479Z,14.73
2023-01-07T11:57:11.447Z,14.88
2023-01-07T11:59:38.871Z,14.80
2023-01-07T12:02:24.184Z,14.85
2023-01-07T12:04:51.904Z,14.65
2023-01-07T12:07:19.451Z,14.65
2023-01-07T12:09:47.061Z,14.58
2023-01-07T12:12:34.531Z,14.67
2023-01-07T12:15:17.283Z,14.55
2023-01-07T12:17:48.065Z,14.70
2023-01-07T12:20:30.908Z,14.51
2023-01-07T12:23:29.930Z,14.62
2023-01-07T12:26:09.145Z,14.68
2023-01-07T12:29:14.647Z,14.58
2023-01-07T12:31:48.352Z,14.51
2023-01-07T12:34:18.720Z,14.45
2023-01-07T12:37:02.391Z,14.45
2023-01-07T12:39:35.919Z,14.40
2023-01-07T12:42:24.785Z,14.49
2023-01-07T12:44:56.863Z,14.51
2023-01-07T12:47:34.861Z,14.57
2023-01-07T12:50:16.712Z,14.75
2023-01-07T12:52:48.176Z,14.61
2023-01-07T12:55:20.939Z,14.58
2023-01-07T12:57:56.613Z,14.54
2023-01-07T13:00:27.745Z,14.55
2023-01-07T13:03:10.235Z,14.55
2023-01-07T13:05:42.915Z,14.61
2023-01-07T13:08:30.950Z,14.62
2023-01-07T13:11:03.947Z,14.68
2023-01-07T13:13:39.280Z,14.67
2023-01-07T13:16:11.211Z,14.61
2023-01-07T13:18:38.916Z,14.61
2023-01-07T13:21:10.360Z,14.49
2023-01-07T13:23:55.947Z,14.64
2023-01-07T13:26:48.176Z,14.68
2023-01-07T13:29:30.077Z,14.78
2023-01-07T13:32:03.437Z,14.77
2023-01-07T13:34:55.459Z,14.89
2023-01-07T13:37:41.455Z,15.00
2023-01-07T13:40:19.958Z,14.82
2023-01-07T13:42:56.870Z,14.69
2023-01-07T13:45:32.489Z,14.80
2023-01-07T13:48:03.060Z,14.62
2023-01-07T13:50:37.077Z,14.61
2023-01-07T13:53:07.944Z,14.60
2023-01-07T13:55:39.869Z,14.57
2023-01-07T13:58:46.100Z,14.60
2023-01-07T14:01:18.155Z,14.48
2023-01-07T14:03:46.692Z,14.65
2023-01-07T14:06:20.396Z,14.53
2023-01-07T14:08:57.718Z,14.54
2023-01-07T14:11:30.941Z,14.58
2023-01-07T14:14:12.565Z,14.49
2023-01-07T14:16:39.857Z,14.68
2023-01-07T14:19:11.093Z,14.57
2023-01-07T14:22:17.214Z,14.50
2023-01-07T14:24:56.628Z,14.44
2023-01-07T14:27:39.090Z,14.44
2023-01-07T14:30:21.967Z,14.25
2023-01-07T14:33:02.265Z,14.26
2023-01-07T14:35:38.385Z,14.34
2023-01-07T14:38:41.990Z,14.16
2023-01-07T14:41:15.890Z,14.04
2023-01-07T14:43:46.021Z,14.11
2023-01-07T14:46:22.709Z,14.06
2023-01-07T14:49:02.304Z,13.98
2023-01-07T14:51:47.970Z,13.93
2023-01-07T14:54:25.143Z,13.84
2023-01-07T14:56:52.771Z,13.90
2023-01-07T14:59:26.347Z,13.80
2023-01-07T15:02:21.407Z,13.78
2023-01-07T15:05:13.369Z,13.76
2023-01-07T15:07:42.406Z,13.54
2023-01-07T15:10:44.720Z,13.61
2023-01-07T15:13:34.934Z,13.54
2023-01-07T15:16:04.025Z,13.45
2023-01-07T15:18:34.749Z,13.42
2023-01-07T15:21:20.838Z,13.41
2023-01-07T15:24:10.696Z,13.31
2023-01-07T15:26:51.612Z,13.50
2023-01-07T15:29:21.976Z,13.12
2023-01-07T15:31:57.679Z,13.05
2023-01-07T15:34:29.659Z,13.06
2023-01-07T15:36:57.294Z,12.97
2023-01-07T15:39:33.914Z,12.96
2023-01-07T15:42:02.088Z,12.84
2023-01-07T15:44:35.351Z,12.79
2023-01-07T15:47:02.976Z,12.74
2023-01-07T15:49:30.822Z,12.69
2023-01-07T15:52:00.457Z,12.71
2023-01-07T15:54:34.891Z,12.69
2023-01-07T15:57:07.200Z,12.53
2023-01-07T15:59:38.161Z,12.63
2023-01-07T16:02:16.857Z,12.67
2023-01-07T16:04:48.386Z,12.58
2023-01-07T16:07:26.597Z,12.61
2023-01-07T16:09:54.945Z,12.59
2023-01-07T16:12:36.864Z,12.38
2023-01-07T16:15:33.607Z,12.52
2023-01-07T16:18:08.598Z,12.57
2023-01-07T16:20:56.564Z,12.53
2023-01-07T16:23:26.620Z,12.57
2023-01-07T16:26:07.417Z,12.49
2023-01-07T16:28:41.622Z,12.49
2023-01-07T16:31:11.422Z,12.44
2023-01-07T16:33:40.609Z,12.45
2023-01-07T16:36:16.688Z,12.29
2023-01-07T16:38:45.683Z,12.32
2023-01-07T16:41:27.184Z,12.20
2023-01-07T16:43:56.450Z,12.11
2023-01-07T16:46:28.988Z,12.10
2023-01-07T16:49:08.930Z,12.07
2023-01-07T16:51:50.735Z,12.03
2023-01-07T16:54:28.682Z,11.89
2023-01-07T16:56:57.618Z,11.94
2023-01-07T16:59:28.892Z,11.87
2023-01-07T17:01:57.070Z,11.89
2023-01-07T17:04:30.402Z,11.75
2023-01-07T17:06:59.295Z,11.50
2023-01-07T17:09:32.935Z,11.50
2023-01-07T17:12:01.635Z,11.36
2023-01-07T17:14:38.444Z,11.37
2023-01-07T17:17:18.132Z,11.26
2023-01-07T17:20:06.984Z,11.25
2023-01-07T17:22:38.195Z,11.23
2023-01-07T17:25:24.588Z,10.99
2023-01-07T17:27:58.410Z,10.97
2023-01-07T17:30:32.230Z,10.88
2023-01-07T17:32:59.678Z,10.98
2023-01-07T17:35:27.502Z,10.72
2023-01-07T17:37:56.717Z,10.78
2023-01-07T17:40:24.188Z,10.70
2023-01-07T17:43:10.768Z,10.74
2023-01-07T17:45:38.203Z,10.73
2023-01-07T17:48:12.479Z,10.71
2023-01-07T17:50:39.855Z,10.51
2023-01-07T17:53:19.095Z,10.54
2023-01-07T17:55:46.508Z,10.59
2023-01-07T17:58:30.585Z,10.49
2023-01-07T18:00:59.747Z,10.52
2023-01-07T18:03:27.817Z,10.51
2023-01-07T18:05:55.220Z,10.48
2023-01-07T18:08:22.791Z,10.49
2023-01-07T18:11:12.399Z,10.45
2023-01-07T18:13:40.569Z,10.45
2023-01-07T18:16:12.332Z,10.38
2023-01-07T18:18:39.786Z,10.46
2023-01-07T18:21:08.721Z,10.52
2023-01-07T18:23:36.510Z,10.50
2023-01-07T18:26:05.279Z,10.53
2023-01-07T18:28:32.666Z,10.58
2023-01-07T18:31:00.551Z,10.44
2023-01-07T18:33:28.253Z,10.51
2023-01-07T18:35:55.778Z,10.52
2023-01-07T18:38:23.466Z,10.53
2023-01-07T18:40:51.082Z,10.54
2023-01-07T18:43:18.944Z,10.44
2023-01-07T18:45:48.138Z,10.61
2023-01-07T18:48:17.948Z,10.61
2023-01-07T18:50:47.688Z,10.52
2023-01-07T18:53:16.188Z,10.26
2023-01-07T18:55:44.696Z,10.30
2023-01-07T18:58:16.381Z,10.42
2023-01-07T19:00:44.083Z,10.30
2023-01-07T19:03:11.550Z,10.20
2023-01-07T19:05:40.056Z,10.26
2023-01-07T19:08:08.066Z,10.26
2023-01-07T19:10:40.808Z,10.22
2023-01-07T19:13:08.500Z,10.19
2023-01-07T19:15:35.938Z,10.20
2023-01-07T19:18:03.428Z,10.26
2023-01-07T19:20:31.067Z,10.26
2023-01-07T19:23:00.968Z,10.47
2023-01-07T19:25:29.546Z,10.50
2023-01-07T19:27:57.801Z,10.29
2023-01-07T19:30:25.606Z,10.18
2023-01-07T19:32:53.304Z,10.32
2023-01-07T19:35:20.985Z,10.37
2023-01-07T19:37:50.128Z,10.40
2023-01-07T19:40:17.652Z,10.47
2023-01-07T19:42:45.511Z,10.42
2023-01-07T19:45:12.892Z,10.54
2023-01-07T19:47:40.552Z,10.37
2023-01-07T19:50:09.175Z,10.38
2023-01-07T19:52:36.594Z,10.28
2023-01-07T19:55:04.550Z,10.32
2023-01-07T19:57:32.309Z,10.23
2023-01-07T19:59:59.881Z,10.30
2023-01-07T20:02:27.555Z,10.36
2023-01-07T20:04:55.390Z,10.28
2023-01-07T20:07:22.847Z,10.30
2023-01-07T20:09:50.262Z,10.46
2023-01-07T20:12:18.081Z,10.41
2023-01-07T20:14:45.701Z,10.46
2023-01-07T20:17:13.096Z,10.46
2023-01-07T20:19:40.785Z,10.47
2023-01-07T20:22:10.906Z,10.43
2023-01-07T20:24:38.323Z,10.48
2023-01-07T20:27:05.980Z,10.33
2023-01-07T20:29:33.967Z,10.40
2023-01-07T20:32:01.802Z,10.53
2023-01-07T20:34:29.807Z,10.56
2023-01-07T20:36:57.184Z,10.49
2023-01-07T20:39:24.636Z,10.46
2023-01-07T20:41:52.322Z,10.34
2023-01-07T20:44:21.620Z,10.41
2023-01-07T20:46:49.237Z,10.43
2023-01-07T20:49:17.358Z,10.44
2023-01-07T20:51:44.902Z,10.22
2023-01-07T20:54:13.261Z,10.32
2023-01-07T20:56:40.968Z,10.33
2023-01-07T20:59:08.885Z,10.31
2023-01-07T21:01:36.334Z,10.40
2023-01-07T21:04:04.301Z,10.49
2023-01-07T21:06:31.719Z,10.46
2023-01-07T21:08:59.161Z,10.42
2023-01-07T21:11:26.882Z,10.52
2023-01-07T21:13:56.169Z,10.50
2023-01-07T21:16:25.553Z,10.49
2023-01-07T21:18:53.369Z,10.64
2023-01-07T21:21:24.451Z,10.61
2023-01-07T21:23:53.148Z,10.62
2023-01-07T21:26:21.477Z,10.61
2023-01-07T21:28:52.237Z,10.59
2023-01-07T21:31:19.621Z,10.63
2023-01-07T21:33:47.353Z,10.48
2023-01-07T21:36:17.077Z,10.55
2023-01-07T21:38:45.337Z,10.58
2023-01-07T21:41:15.675Z,10.50
2023-01-07T21:43:43.803Z,10.60
2023-01-07T21:46:12.086Z,10.50
2023-01-07T21:48:42.074Z,10.62
2023-01-07T21:51:22.488Z,10.58
2023-01-07T21:53:52.235Z,10.57
2023-01-07T21:56:19.994Z,10.64
2023-01-07T21:58:48.037Z,10.64
2023-01-07T22:01:17.063Z,10.61
2023-01-07T22:03:47.363Z,10.40
2023-01-07T22:06:20.580Z,10.45
2023-01-07T22:08:48.898Z,10.41
2023-01-07T22:11:17.771Z,10.51
2023-01-07T22:13:49.487Z,10.52
2023-01-07T22:16:17.240Z,10.41
2023-01-07T22:18:44.619Z,10.52
2023-01-07T22:21:12.046Z,10.58
2023-01-07T22:23:39.729Z,10.53
2023-01-07T22:26:08.302Z,10.54
2023-01-07T22:28:36.745Z,10.57
2023-01-07T22:31:13.580Z,10.53
2023-01-07T22:33:40.988Z,10.59
2023-01-07T22:36:09.218Z,10.65
2023-01-07T22:38:37.205Z,10.60
2023-01-07T22:41:05.228Z,10.53
2023-01-07T22:43:33.061Z,10.59
2023-01-07T22:46:04.625Z,10.62
2023-01-07T22:48:34.680Z,10.62
2023-01-07T22:51:17.280Z,10.61
2023-01-07T22:53:44.952Z,10.65
2023-01-07T22:56:13.529Z,10.57
2023-01-07T22:58:41.016Z,10.51
2023-01-07T23:01:12.722Z,10.56
2023-01-07T23:03:41.509Z,10.51
2023-01-07T23:06:11.100Z,10.57
2023-01-07T23:08:39.425Z,10.66
2023-01-07T23:11:07.652Z,10.57
2023-01-07T23:13:35.040Z,10.57
2023-01-07T23:16:07.546Z,10.58
2023-01-07T23:18:35.241Z,10.65
2023-01-07T23:21:04.174Z,10.67
2023-01-07T23:23:31.568Z,10.73
2023-01-07T23:25:59.236Z,10.66
2023-01-07T23:28:26.617Z,10.54
2023-01-07T23:30:54.120Z,10.59
2023-01-07T23:33:21.879Z,10.54
2023-01-07T23:35:49.258Z,10.57
2023-01-07T23:38:16.589Z,10.60
2023-01-07T23:40:44.264Z,10.66
2023-01-07T23:43:11.669Z,10.59
2023-01-07T23:45:39.287Z,10.65
2023-01-07T23:48:06.955Z,10.67
2023-01-07T23:50:34.354Z,10.72
2023-01-07T23:53:01.731Z,10.75
2023-01-07T23:55:29.377Z,10.72
2023-01-07T23:57:56.734Z,10.67
